Ayacucho, Peru

7:05 AM PET on April 27, 2015 (GMT -0500)
Col Alfredo Mendivil Duarte | | Change Station
CLOSE
Current Station
Airport
Location: Ayacucho,
Elevation: 8993 ft
Nearby Weather Stations

Elev 8993 ft 13.15 °S, 74.20 °W | Updated 5 minutes ago

Overcast
Overcast
54 °F
Feels Like 54 °F
N
1
Wind Variable Wind from Variable

Today
High -- | Low -- °F
--% Chance of Precip.
Yesterday
High -- | Low -- °F
Precip. -- in
6:04 AM 5:44 PM
Waxing Gibbous, 64% visible
Pressure 30.45 in
Visibility 6.2 miles
Clouds Few 4000 ft
Overcast 9000 ft
Dew Point 45 °F
Humidity 72%
Rainfall 0.00 in
Snow Depth Not available.
UV 0 out of 12
Pollen Not available.
Air Quality Not available.
Flu Activity Not available.
METAR SPHO 271200Z VRB01KT 9999 FEW040 OVC090 12/07 Q1031 RMK PP000

More Conditions Fewer Conditions

Pressure 30.45 in
Visibility 6.2 miles
Clouds Few 4000 ft
Overcast 9000 ft
Dew Point 45 °F
Humidity 72%
Rainfall 0.00 in
Snow Depth Not available.
UV 0 out of 12
Pollen Not available.
Air Quality Not available.
Flu Activity Not available.
METAR SPHO 271200Z VRB01KT 9999 FEW040 OVC090 12/07 Q1031 RMK PP000

More Conditions Fewer Conditions

10-Day Weather Forecast

Almanac

Astronomy

Apr. 27, 2015 Rise Set
Actual Time
Civil Twilight
Nautical Twilight
Astronomical Twilight
Moon
Length of Visible Light
Length of Day
Tomorrow will be .
, % of the Moon is Illuminated

Today's Extremes

Country Highs Country Lows

Community

WunderPhotos

Upload Photos

1,817,284 photos uploaded!

WunderBlogs® & News

Nearby

Air Quality

  Air Quality AQ Index Pollutant
Not available.

Snow Depth

Station Depth Elevation

Earthquake Activity

City Distance Mag. Time & Date
Minimum magnitude displayed is 2.5.

Coastal Water Temperatures

Place Temperature

Stations

Nearby Weather Stations

Station Location Temp. Windchill Dew Point Humidity Wind Precip. Elev Updated Type